sensor_id;sensor_type;location;lat;lon;timestamp;P1;durP1;ratioP1;P2;durP2;ratioP2
1370;SDS011;14306;49.942;11.570;2023-03-02T00:01:51;40.65;;;20.25;;
1370;SDS011;14306;49.942;11.570;2023-03-02T00:04:23;38.85;;;20.52;;
1370;SDS011;14306;49.942;11.570;2023-03-02T00:06:55;36.67;;;18.60;;
1370;SDS011;14306;49.942;11.570;2023-03-02T00:09:27;30.88;;;17.35;;
1370;SDS011;14306;49.942;11.570;2023-03-02T00:11:57;33.72;;;19.63;;
1370;SDS011;14306;49.942;11.570;2023-03-02T00:14:25;38.63;;;16.55;;
1370;SDS011;14306;49.942;11.570;2023-03-02T00:16:54;42.42;;;19.75;;
1370;SDS011;14306;49.942;11.570;2023-03-02T00:19:24;40.80;;;19.60;;
1370;SDS011;14306;49.942;11.570;2023-03-02T00:21:53;33.60;;;17.85;;
1370;SDS011;14306;49.942;11.570;2023-03-02T00:24:22;42.53;;;18.48;;
1370;SDS011;14306;49.942;11.570;2023-03-02T00:26:51;39.90;;;19.77;;
1370;SDS011;14306;49.942;11.570;2023-03-02T00:29:19;31.77;;;17.25;;
1370;SDS011;14306;49.942;11.570;2023-03-02T00:31:48;36.67;;;18.20;;
1370;SDS011;14306;49.942;11.570;2023-03-02T00:34:17;32.72;;;16.25;;
1370;SDS011;14306;49.942;11.570;2023-03-02T00:36:45;38.67;;;16.40;;
1370;SDS011;14306;49.942;11.570;2023-03-02T00:39:15;43.05;;;17.75;;
1370;SDS011;14306;49.942;11.570;2023-03-02T00:41:46;39.35;;;19.13;;
1370;SDS011;14306;49.942;11.570;2023-03-02T00:44:16;34.03;;;17.40;;
1370;SDS011;14306;49.942;11.570;2023-03-02T00:46:44;34.28;;;19.05;;
1370;SDS011;14306;49.942;11.570;2023-03-02T00:49:13;35.88;;;17.33;;
1370;SDS011;14306;49.942;11.570;2023-03-02T00:51:41;38.20;;;19.30;;
1370;SDS011;14306;49.942;11.570;2023-03-02T00:54:09;38.42;;;19.15;;
1370;SDS011;14306;49.942;11.570;2023-03-02T00:56:38;41.80;;;19.42;;
1370;SDS011;14306;49.942;11.570;2023-03-02T00:59:07;40.83;;;18.75;;
1370;SDS011;14306;49.942;11.570;2023-03-02T01:01:54;37.00;;;17.38;;
1370;SDS011;14306;49.942;11.570;2023-03-02T01:04:24;34.17;;;17.55;;
1370;SDS011;14306;49.942;11.570;2023-03-02T01:06:55;33.53;;;17.63;;
1370;SDS011;14306;49.942;11.570;2023-03-02T01:09:24;34.22;;;17.55;;
1370;SDS011;14306;49.942;11.570;2023-03-02T01:11:53;34.65;;;16.95;;
1370;SDS011;14306;49.942;11.570;2023-03-02T01:14:21;33.28;;;17.33;;
1370;SDS011;14306;49.942;11.570;2023-03-02T01:16:50;34.15;;;17.40;;
1370;SDS011;14306;49.942;11.570;2023-03-02T01:19:21;38.05;;;19.30;;
1370;SDS011;14306;49.942;11.570;2023-03-02T01:21:49;38.05;;;18.90;;
1370;SDS011;14306;49.942;11.570;2023-03-02T01:24:19;33.42;;;18.25;;
1370;SDS011;14306;49.942;11.570;2023-03-02T01:26:48;37.17;;;17.20;;
1370;SDS011;14306;49.942;11.570;2023-03-02T01:29:16;39.42;;;19.17;;
1370;SDS011;14306;49.942;11.570;2023-03-02T01:31:45;39.40;;;17.73;;
1370;SDS011;14306;49.942;11.570;2023-03-02T01:34:14;35.70;;;16.48;;
1370;SDS011;14306;49.942;11.570;2023-03-02T01:36:44;34.30;;;17.80;;
1370;SDS011;14306;49.942;11.570;2023-03-02T01:39:12;40.70;;;17.23;;
1370;SDS011;14306;49.942;11.570;2023-03-02T01:41:42;30.50;;;17.50;;
1370;SDS011;14306;49.942;11.570;2023-03-02T01:47:02;33.40;;;17.58;;
1370;SDS011;14306;49.942;11.570;2023-03-02T01:49:32;43.53;;;19.50;;
1370;SDS011;14306;49.942;11.570;2023-03-02T01:52:06;49.63;;;18.98;;
1370;SDS011;14306;49.942;11.570;2023-03-02T01:54:36;55.75;;;19.80;;
1370;SDS011;14306;49.942;11.570;2023-03-02T01:57:05;36.53;;;18.20;;
1370;SDS011;14306;49.942;11.570;2023-03-02T01:59:34;30.48;;;16.50;;
1370;SDS011;14306;49.942;11.570;2023-03-02T02:02:05;37.65;;;18.40;;
1370;SDS011;14306;49.942;11.570;2023-03-02T02:04:39;33.45;;;18.08;;
1370;SDS011;14306;49.942;11.570;2023-03-02T02:07:13;30.45;;;16.92;;
1370;SDS011;14306;49.942;11.570;2023-03-02T02:09:43;35.70;;;17.95;;
1370;SDS011;14306;49.942;11.570;2023-03-02T02:12:14;35.72;;;17.02;;
1370;SDS011;14306;49.942;11.570;2023-03-02T02:14:44;40.67;;;18.17;;
1370;SDS011;14306;49.942;11.570;2023-03-02T02:17:13;27.88;;;16.83;;
1370;SDS011;14306;49.942;11.570;2023-03-02T02:19:46;33.10;;;16.83;;
1370;SDS011;14306;49.942;11.570;2023-03-02T02:22:28;31.40;;;16.50;;
1370;SDS011;14306;49.942;11.570;2023-03-02T02:25:09;36.90;;;20.67;;
1370;SDS011;14306;49.942;11.570;2023-03-02T02:27:46;38.63;;;19.67;;
1370;SDS011;14306;49.942;11.570;2023-03-02T02:30:15;35.17;;;17.23;;
1370;SDS011;14306;49.942;11.570;2023-03-02T02:32:45;37.58;;;17.00;;
1370;SDS011;14306;49.942;11.570;2023-03-02T02:35:17;41.95;;;18.70;;
1370;SDS011;14306;49.942;11.570;2023-03-02T02:37:50;33.78;;;17.85;;
1370;SDS011;14306;49.942;11.570;2023-03-02T02:40:35;35.55;;;17.48;;
1370;SDS011;14306;49.942;11.570;2023-03-02T02:43:10;36.95;;;15.38;;
1370;SDS011;14306;49.942;11.570;2023-03-02T02:45:39;31.58;;;16.65;;
1370;SDS011;14306;49.942;11.570;2023-03-02T02:48:09;35.47;;;16.85;;
1370;SDS011;14306;49.942;11.570;2023-03-02T02:50:42;30.30;;;16.80;;
1370;SDS011;14306;49.942;11.570;2023-03-02T02:53:12;30.77;;;17.05;;
1370;SDS011;14306;49.942;11.570;2023-03-02T02:55:44;30.67;;;15.25;;
1370;SDS011;14306;49.942;11.570;2023-03-02T02:58:22;30.48;;;15.43;;
1370;SDS011;14306;49.942;11.570;2023-03-02T03:00:55;34.20;;;17.95;;
1370;SDS011;14306;49.942;11.570;2023-03-02T03:03:26;35.13;;;18.33;;
1370;SDS011;14306;49.942;11.570;2023-03-02T03:05:57;28.95;;;16.38;;
1370;SDS011;14306;49.942;11.570;2023-03-02T03:11:27;27.55;;;15.68;;
1370;SDS011;14306;49.942;11.570;2023-03-02T03:14:02;30.08;;;15.77;;
1370;SDS011;14306;49.942;11.570;2023-03-02T03:16:34;32.20;;;18.30;;
1370;SDS011;14306;49.942;11.570;2023-03-02T03:19:08;31.42;;;15.48;;
1370;SDS011;14306;49.942;11.570;2023-03-02T03:21:40;31.23;;;16.23;;
1370;SDS011;14306;49.942;11.570;2023-03-02T03:24:09;29.17;;;14.20;;
1370;SDS011;14306;49.942;11.570;2023-03-02T03:26:38;36.40;;;17.85;;
1370;SDS011;14306;49.942;11.570;2023-03-02T03:29:07;36.10;;;16.63;;
1370;SDS011;14306;49.942;11.570;2023-03-02T03:31:37;25.92;;;14.30;;
1370;SDS011;14306;49.942;11.570;2023-03-02T03:34:05;37.00;;;16.35;;
1370;SDS011;14306;49.942;11.570;2023-03-02T03:36:34;32.08;;;15.40;;
1370;SDS011;14306;49.942;11.570;2023-03-02T03:39:04;29.25;;;15.57;;
1370;SDS011;14306;49.942;11.570;2023-03-02T03:41:33;29.30;;;16.42;;
1370;SDS011;14306;49.942;11.570;2023-03-02T03:44:02;33.63;;;15.02;;
1370;SDS011;14306;49.942;11.570;2023-03-02T03:46:32;28.42;;;14.60;;
1370;SDS011;14306;49.942;11.570;2023-03-02T03:49:02;31.85;;;15.35;;
1370;SDS011;14306;49.942;11.570;2023-03-02T03:51:31;35.35;;;17.33;;
1370;SDS011;14306;49.942;11.570;2023-03-02T03:54:01;29.92;;;16.45;;
1370;SDS011;14306;49.942;11.570;2023-03-02T03:56:31;37.28;;;16.63;;
1370;SDS011;14306;49.942;11.570;2023-03-02T03:59:01;35.72;;;17.52;;
1370;SDS011;14306;49.942;11.570;2023-03-02T04:01:35;31.45;;;17.25;;
1370;SDS011;14306;49.942;11.570;2023-03-02T04:04:11;33.92;;;17.40;;
1370;SDS011;14306;49.942;11.570;2023-03-02T04:06:41;29.85;;;16.80;;
1370;SDS011;14306;49.942;11.570;2023-03-02T04:09:11;47.70;;;17.85;;
1370;SDS011;14306;49.942;11.570;2023-03-02T04:11:41;33.80;;;17.42;;
1370;SDS011;14306;49.942;11.570;2023-03-02T04:14:11;31.50;;;16.25;;
1370;SDS011;14306;49.942;11.570;2023-03-02T04:16:42;34.10;;;16.05;;
1370;SDS011;14306;49.942;11.570;2023-03-02T04:19:12;33.10;;;16.48;;
1370;SDS011;14306;49.942;11.570;2023-03-02T04:21:43;34.80;;;17.98;;
1370;SDS011;14306;49.942;11.570;2023-03-02T04:24:14;33.53;;;16.60;;
1370;SDS011;14306;49.942;11.570;2023-03-02T04:26:44;33.47;;;17.52;;
1370;SDS011;14306;49.942;11.570;2023-03-02T04:29:15;29.80;;;15.32;;
1370;SDS011;14306;49.942;11.570;2023-03-02T04:31:45;29.92;;;17.83;;
1370;SDS011;14306;49.942;11.570;2023-03-02T04:34:15;23.25;;;14.40;;
1370;SDS011;14306;49.942;11.570;2023-03-02T04:36:44;33.50;;;17.50;;
1370;SDS011;14306;49.942;11.570;2023-03-02T04:39:13;29.50;;;15.90;;
1370;SDS011;14306;49.942;11.570;2023-03-02T04:41:44;30.55;;;15.57;;
1370;SDS011;14306;49.942;11.570;2023-03-02T04:44:14;29.65;;;15.57;;
1370;SDS011;14306;49.942;11.570;2023-03-02T04:46:46;34.55;;;16.55;;
1370;SDS011;14306;49.942;11.570;2023-03-02T04:49:15;39.28;;;17.60;;
1370;SDS011;14306;49.942;11.570;2023-03-02T04:51:45;37.22;;;16.58;;
1370;SDS011;14306;49.942;11.570;2023-03-02T04:54:16;32.35;;;16.95;;
1370;SDS011;14306;49.942;11.570;2023-03-02T04:56:47;41.85;;;18.23;;
1370;SDS011;14306;49.942;11.570;2023-03-02T04:59:18;31.25;;;14.68;;
1370;SDS011;14306;49.942;11.570;2023-03-02T05:01:53;35.45;;;16.27;;
1370;SDS011;14306;49.942;11.570;2023-03-02T05:04:22;26.25;;;14.55;;
1370;SDS011;14306;49.942;11.570;2023-03-02T05:06:51;29.92;;;15.05;;
1370;SDS011;14306;49.942;11.570;2023-03-02T05:09:20;29.65;;;15.13;;
1370;SDS011;14306;49.942;11.570;2023-03-02T05:11:52;31.02;;;14.40;;
1370;SDS011;14306;49.942;11.570;2023-03-02T05:14:21;35.28;;;16.80;;
1370;SDS011;14306;49.942;11.570;2023-03-02T05:16:49;29.90;;;15.00;;
1370;SDS011;14306;49.942;11.570;2023-03-02T05:19:19;29.15;;;15.43;;
1370;SDS011;14306;49.942;11.570;2023-03-02T05:21:48;30.38;;;14.82;;
1370;SDS011;14306;49.942;11.570;2023-03-02T05:24:16;42.28;;;15.95;;
1370;SDS011;14306;49.942;11.570;2023-03-02T05:26:46;35.70;;;17.10;;
1370;SDS011;14306;49.942;11.570;2023-03-02T05:29:14;28.33;;;14.63;;
1370;SDS011;14306;49.942;11.570;2023-03-02T05:31:43;31.92;;;17.35;;
1370;SDS011;14306;49.942;11.570;2023-03-02T05:34:13;32.47;;;15.13;;
1370;SDS011;14306;49.942;11.570;2023-03-02T05:36:44;36.28;;;16.20;;
1370;SDS011;14306;49.942;11.570;2023-03-02T05:39:13;29.67;;;15.98;;
1370;SDS011;14306;49.942;11.570;2023-03-02T05:41:41;34.08;;;16.33;;
1370;SDS011;14306;49.942;11.570;2023-03-02T05:44:09;32.55;;;15.55;;
1370;SDS011;14306;49.942;11.570;2023-03-02T05:46:38;32.03;;;15.30;;
1370;SDS011;14306;49.942;11.570;2023-03-02T05:49:07;35.60;;;16.55;;
1370;SDS011;14306;49.942;11.570;2023-03-02T05:51:41;30.75;;;15.13;;
1370;SDS011;14306;49.942;11.570;2023-03-02T05:54:11;35.30;;;16.13;;
1370;SDS011;14306;49.942;11.570;2023-03-02T05:56:39;34.97;;;16.73;;
1370;SDS011;14306;49.942;11.570;2023-03-02T05:59:07;32.20;;;16.15;;
1370;SDS011;14306;49.942;11.570;2023-03-02T06:01:35;30.45;;;16.40;;
1370;SDS011;14306;49.942;11.570;2023-03-02T06:04:04;32.72;;;17.98;;
1370;SDS011;14306;49.942;11.570;2023-03-02T06:06:33;43.15;;;18.08;;
1370;SDS011;14306;49.942;11.570;2023-03-02T06:09:02;40.60;;;18.35;;
1370;SDS011;14306;49.942;11.570;2023-03-02T06:11:32;33.40;;;19.00;;
1370;SDS011;14306;49.942;11.570;2023-03-02T06:14:00;33.53;;;15.48;;
1370;SDS011;14306;49.942;11.570;2023-03-02T06:16:28;37.78;;;16.50;;
1370;SDS011;14306;49.942;11.570;2023-03-02T06:18:59;36.42;;;17.52;;
1370;SDS011;14306;49.942;11.570;2023-03-02T06:21:29;31.58;;;16.48;;
1370;SDS011;14306;49.942;11.570;2023-03-02T06:23:58;30.88;;;15.90;;
1370;SDS011;14306;49.942;11.570;2023-03-02T06:26:26;34.90;;;17.70;;
1370;SDS011;14306;49.942;11.570;2023-03-02T06:28:56;34.20;;;18.67;;
1370;SDS011;14306;49.942;11.570;2023-03-02T06:31:25;44.47;;;21.13;;
1370;SDS011;14306;49.942;11.570;2023-03-02T06:33:54;47.90;;;23.58;;
1370;SDS011;14306;49.942;11.570;2023-03-02T06:36:26;36.72;;;19.40;;
1370;SDS011;14306;49.942;11.570;2023-03-02T06:38:55;68.22;;;31.02;;
1370;SDS011;14306;49.942;11.570;2023-03-02T06:41:23;38.97;;;18.80;;
1370;SDS011;14306;49.942;11.570;2023-03-02T06:43:53;40.50;;;18.20;;
1370;SDS011;14306;49.942;11.570;2023-03-02T06:46:23;37.00;;;19.13;;
1370;SDS011;14306;49.942;11.570;2023-03-02T06:48:53;38.77;;;18.87;;
1370;SDS011;14306;49.942;11.570;2023-03-02T06:51:23;34.67;;;19.57;;
1370;SDS011;14306;49.942;11.570;2023-03-02T06:53:53;59.87;;;26.10;;
1370;SDS011;14306;49.942;11.570;2023-03-02T06:56:24;52.20;;;24.40;;
1370;SDS011;14306;49.942;11.570;2023-03-02T06:58:53;44.20;;;23.00;;
1370;SDS011;14306;49.942;11.570;2023-03-02T07:01:23;41.23;;;20.17;;
1370;SDS011;14306;49.942;11.570;2023-03-02T07:03:52;37.00;;;19.43;;
1370;SDS011;14306;49.942;11.570;2023-03-02T07:06:20;40.00;;;20.60;;
1370;SDS011;14306;49.942;11.570;2023-03-02T07:08:48;34.60;;;19.60;;
1370;SDS011;14306;49.942;11.570;2023-03-02T07:11:17;38.33;;;18.60;;
1370;SDS011;14306;49.942;11.570;2023-03-02T07:13:48;39.13;;;18.10;;
1370;SDS011;14306;49.942;11.570;2023-03-02T07:16:17;43.33;;;20.97;;
1370;SDS011;14306;49.942;11.570;2023-03-02T07:18:46;30.50;;;18.60;;
1370;SDS011;14306;49.942;11.570;2023-03-02T07:21:15;35.70;;;19.10;;
1370;SDS011;14306;49.942;11.570;2023-03-02T07:23:44;39.57;;;21.70;;
1370;SDS011;14306;49.942;11.570;2023-03-02T07:26:13;36.83;;;19.50;;
1370;SDS011;14306;49.942;11.570;2023-03-02T07:28:41;33.40;;;19.33;;
1370;SDS011;14306;49.942;11.570;2023-03-02T07:31:10;36.50;;;21.10;;
1370;SDS011;14306;49.942;11.570;2023-03-02T07:33:38;38.30;;;21.60;;
1370;SDS011;14306;49.942;11.570;2023-03-02T07:36:09;41.77;;;21.37;;
1370;SDS011;14306;49.942;11.570;2023-03-02T07:38:37;34.80;;;21.60;;
1370;SDS011;14306;49.942;11.570;2023-03-02T07:41:06;35.27;;;22.17;;
1370;SDS011;14306;49.942;11.570;2023-03-02T07:43:35;39.23;;;22.37;;
1370;SDS011;14306;49.942;11.570;2023-03-02T07:46:04;33.57;;;19.60;;
1370;SDS011;14306;49.942;11.570;2023-03-02T07:48:33;34.53;;;21.63;;
1370;SDS011;14306;49.942;11.570;2023-03-02T07:51:02;33.13;;;22.43;;
1370;SDS011;14306;49.942;11.570;2023-03-02T07:53:33;39.57;;;24.20;;
1370;SDS011;14306;49.942;11.570;2023-03-02T07:56:06;31.90;;;20.90;;
1370;SDS011;14306;49.942;11.570;2023-03-02T07:58:36;36.67;;;22.93;;
1370;SDS011;14306;49.942;11.570;2023-03-02T08:01:05;40.27;;;24.03;;
1370;SDS011;14306;49.942;11.570;2023-03-02T08:03:34;37.30;;;21.30;;
1370;SDS011;14306;49.942;11.570;2023-03-02T08:06:03;36.70;;;21.10;;
1370;SDS011;14306;49.942;11.570;2023-03-02T08:08:34;28.53;;;18.60;;
1370;SDS011;14306;49.942;11.570;2023-03-02T08:11:04;31.23;;;18.93;;
1370;SDS011;14306;49.942;11.570;2023-03-02T08:13:34;32.57;;;18.73;;
1370;SDS011;14306;49.942;11.570;2023-03-02T08:16:03;97.40;;;55.80;;
1370;SDS011;14306;49.942;11.570;2023-03-02T08:18:33;63.13;;;34.23;;
1370;SDS011;14306;49.942;11.570;2023-03-02T08:21:03;31.13;;;18.17;;
1370;SDS011;14306;49.942;11.570;2023-03-02T08:23:40;26.90;;;15.80;;
1370;SDS011;14306;49.942;11.570;2023-03-02T08:26:09;23.40;;;16.33;;
1370;SDS011;14306;49.942;11.570;2023-03-02T08:28:42;27.00;;;17.00;;
1370;SDS011;14306;49.942;11.570;2023-03-02T08:31:11;29.47;;;18.53;;
1370;SDS011;14306;49.942;11.570;2023-03-02T08:33:40;64.60;;;32.17;;
1370;SDS011;14306;49.942;11.570;2023-03-02T08:36:11;33.23;;;20.37;;
1370;SDS011;14306;49.942;11.570;2023-03-02T08:38:43;34.23;;;18.27;;
1370;SDS011;14306;49.942;11.570;2023-03-02T08:41:12;23.83;;;15.00;;
1370;SDS011;14306;49.942;11.570;2023-03-02T08:43:42;29.57;;;16.90;;
1370;SDS011;14306;49.942;11.570;2023-03-02T08:46:11;36.30;;;18.10;;
1370;SDS011;14306;49.942;11.570;2023-03-02T08:48:40;26.63;;;16.00;;
1370;SDS011;14306;49.942;11.570;2023-03-02T08:51:10;34.73;;;17.47;;
1370;SDS011;14306;49.942;11.570;2023-03-02T08:53:41;26.73;;;16.13;;
1370;SDS011;14306;49.942;11.570;2023-03-02T08:56:17;32.63;;;17.07;;
1370;SDS011;14306;49.942;11.570;2023-03-02T08:58:46;29.17;;;15.63;;
1370;SDS011;14306;49.942;11.570;2023-03-02T09:01:19;27.07;;;14.80;;
1370;SDS011;14306;49.942;11.570;2023-03-02T09:03:49;41.13;;;18.10;;
1370;SDS011;14306;49.942;11.570;2023-03-02T09:06:18;35.27;;;15.13;;
1370;SDS011;14306;49.942;11.570;2023-03-02T09:08:48;43.97;;;16.00;;
1370;SDS011;14306;49.942;11.570;2023-03-02T09:11:17;24.73;;;14.80;;
1370;SDS011;14306;49.942;11.570;2023-03-02T09:13:46;27.80;;;15.20;;
1370;SDS011;14306;49.942;11.570;2023-03-02T09:16:15;22.10;;;13.63;;
1370;SDS011;14306;49.942;11.570;2023-03-02T09:18:45;32.87;;;15.50;;
1370;SDS011;14306;49.942;11.570;2023-03-02T09:21:15;36.50;;;14.03;;
1370;SDS011;14306;49.942;11.570;2023-03-02T09:23:44;31.83;;;13.40;;
1370;SDS011;14306;49.942;11.570;2023-03-02T09:26:15;19.13;;;12.37;;
1370;SDS011;14306;49.942;11.570;2023-03-02T09:28:43;26.43;;;11.23;;
1370;SDS011;14306;49.942;11.570;2023-03-02T09:31:12;28.67;;;14.00;;
1370;SDS011;14306;49.942;11.570;2023-03-02T09:33:40;18.93;;;11.17;;
1370;SDS011;14306;49.942;11.570;2023-03-02T09:36:10;33.77;;;11.67;;
1370;SDS011;14306;49.942;11.570;2023-03-02T09:38:42;21.83;;;10.07;;
1370;SDS011;14306;49.942;11.570;2023-03-02T09:41:27;29.80;;;11.13;;
1370;SDS011;14306;49.942;11.570;2023-03-02T09:44:21;20.80;;;10.77;;
1370;SDS011;14306;49.942;11.570;2023-03-02T09:47:02;25.50;;;11.00;;
1370;SDS011;14306;49.942;11.570;2023-03-02T09:49:37;22.03;;;9.37;;
1370;SDS011;14306;49.942;11.570;2023-03-02T09:52:20;23.70;;;7.73;;
1370;SDS011;14306;49.942;11.570;2023-03-02T09:54:59;29.00;;;9.80;;
1370;SDS011;14306;49.942;11.570;2023-03-02T09:57:32;22.60;;;9.20;;
1370;SDS011;14306;49.942;11.570;2023-03-02T10:00:06;18.37;;;8.13;;
1370;SDS011;14306;49.942;11.570;2023-03-02T10:02:46;22.00;;;9.60;;
1370;SDS011;14306;49.942;11.570;2023-03-02T10:05:16;21.23;;;8.93;;
1370;SDS011;14306;49.942;11.570;2023-03-02T10:07:47;18.47;;;8.60;;
1370;SDS011;14306;49.942;11.570;2023-03-02T10:10:22;20.20;;;8.90;;
1370;SDS011;14306;49.942;11.570;2023-03-02T10:12:59;18.03;;;8.60;;
1370;SDS011;14306;49.942;11.570;2023-03-02T10:15:39;27.83;;;8.90;;
1370;SDS011;14306;49.942;11.570;2023-03-02T10:18:17;32.33;;;9.40;;
1370;SDS011;14306;49.942;11.570;2023-03-02T10:20:50;13.70;;;7.93;;
1370;SDS011;14306;49.942;11.570;2023-03-02T10:23:30;23.53;;;9.10;;
1370;SDS011;14306;49.942;11.570;2023-03-02T10:26:11;19.40;;;9.53;;
1370;SDS011;14306;49.942;11.570;2023-03-02T10:28:52;27.23;;;9.90;;
1370;SDS011;14306;49.942;11.570;2023-03-02T10:31:27;29.17;;;9.77;;
1370;SDS011;14306;49.942;11.570;2023-03-02T10:34:00;17.63;;;8.67;;
1370;SDS011;14306;49.942;11.570;2023-03-02T10:36:29;23.43;;;9.63;;
1370;SDS011;14306;49.942;11.570;2023-03-02T10:39:09;22.97;;;8.43;;
1370;SDS011;14306;49.942;11.570;2023-03-02T10:41:43;20.53;;;8.77;;
1370;SDS011;14306;49.942;11.570;2023-03-02T10:44:18;18.97;;;7.60;;
1370;SDS011;14306;49.942;11.570;2023-03-02T10:46:49;18.30;;;7.90;;
1370;SDS011;14306;49.942;11.570;2023-03-02T10:49:22;16.90;;;7.93;;
1370;SDS011;14306;49.942;11.570;2023-03-02T10:51:54;31.47;;;9.33;;
1370;SDS011;14306;49.942;11.570;2023-03-02T10:54:24;24.40;;;8.57;;
1370;SDS011;14306;49.942;11.570;2023-03-02T10:56:55;19.10;;;7.90;;
1370;SDS011;14306;49.942;11.570;2023-03-02T10:59:44;16.73;;;9.57;;
1370;SDS011;14306;49.942;11.570;2023-03-02T11:02:15;16.20;;;8.50;;
1370;SDS011;14306;49.942;11.570;2023-03-02T11:04:48;22.57;;;9.23;;
1370;SDS011;14306;49.942;11.570;2023-03-02T11:07:24;14.87;;;8.70;;
1370;SDS011;14306;49.942;11.570;2023-03-02T11:10:00;18.30;;;8.50;;
1370;SDS011;14306;49.942;11.570;2023-03-02T11:12:31;21.70;;;8.73;;
1370;SDS011;14306;49.942;11.570;2023-03-02T11:15:18;20.30;;;8.50;;
1370;SDS011;14306;49.942;11.570;2023-03-02T11:17:49;15.03;;;6.93;;
1370;SDS011;14306;49.942;11.570;2023-03-02T11:20:28;18.00;;;8.40;;
1370;SDS011;14306;49.942;11.570;2023-03-02T11:23:05;22.87;;;8.13;;
1370;SDS011;14306;49.942;11.570;2023-03-02T11:25:50;16.43;;;8.33;;
1370;SDS011;14306;49.942;11.570;2023-03-02T11:28:33;22.17;;;9.10;;
1370;SDS011;14306;49.942;11.570;2023-03-02T11:31:11;28.43;;;10.37;;
1370;SDS011;14306;49.942;11.570;2023-03-02T11:33:52;16.40;;;8.27;;
1370;SDS011;14306;49.942;11.570;2023-03-02T11:36:43;21.63;;;8.00;;
1370;SDS011;14306;49.942;11.570;2023-03-02T11:39:19;17.70;;;8.20;;
1370;SDS011;14306;49.942;11.570;2023-03-02T11:41:52;23.90;;;10.27;;
1370;SDS011;14306;49.942;11.570;2023-03-02T11:44:21;23.20;;;9.20;;
1370;SDS011;14306;49.942;11.570;2023-03-02T11:46:55;22.63;;;9.23;;
1370;SDS011;14306;49.942;11.570;2023-03-02T11:49:31;22.47;;;10.33;;
1370;SDS011;14306;49.942;11.570;2023-03-02T11:52:08;19.23;;;8.43;;
1370;SDS011;14306;49.942;11.570;2023-03-02T11:54:45;23.53;;;8.60;;
1370;SDS011;14306;49.942;11.570;2023-03-02T11:57:21;26.90;;;8.60;;
1370;SDS011;14306;49.942;11.570;2023-03-02T11:59:54;18.00;;;8.30;;
1370;SDS011;14306;49.942;11.570;2023-03-02T12:02:26;17.60;;;8.77;;
1370;SDS011;14306;49.942;11.570;2023-03-02T12:05:01;20.20;;;8.87;;
1370;SDS011;14306;49.942;11.570;2023-03-02T12:07:31;18.70;;;8.53;;
1370;SDS011;14306;49.942;11.570;2023-03-02T12:10:00;17.43;;;7.50;;
1370;SDS011;14306;49.942;11.570;2023-03-02T12:12:34;21.40;;;7.73;;
1370;SDS011;14306;49.942;11.570;2023-03-02T12:15:25;25.23;;;9.23;;
1370;SDS011;14306;49.942;11.570;2023-03-02T12:17:56;18.90;;;9.63;;
1370;SDS011;14306;49.942;11.570;2023-03-02T12:20:26;22.13;;;8.50;;
1370;SDS011;14306;49.942;11.570;2023-03-02T12:23:06;18.90;;;8.50;;
1370;SDS011;14306;49.942;11.570;2023-03-02T12:25:38;21.30;;;8.20;;
1370;SDS011;14306;49.942;11.570;2023-03-02T12:28:26;23.00;;;9.20;;
1370;SDS011;14306;49.942;11.570;2023-03-02T12:31:04;22.73;;;8.63;;
1370;SDS011;14306;49.942;11.570;2023-03-02T12:33:45;20.40;;;10.47;;
1370;SDS011;14306;49.942;11.570;2023-03-02T12:36:16;22.07;;;9.03;;
1370;SDS011;14306;49.942;11.570;2023-03-02T12:38:53;24.43;;;9.80;;
1370;SDS011;14306;49.942;11.570;2023-03-02T12:41:44;19.03;;;9.40;;
1370;SDS011;14306;49.942;11.570;2023-03-02T12:44:37;17.50;;;8.50;;
1370;SDS011;14306;49.942;11.570;2023-03-02T12:47:15;21.87;;;10.23;;
1370;SDS011;14306;49.942;11.570;2023-03-02T12:49:54;16.30;;;9.30;;
1370;SDS011;14306;49.942;11.570;2023-03-02T12:52:28;22.50;;;10.40;;
1370;SDS011;14306;49.942;11.570;2023-03-02T12:55:00;20.03;;;9.70;;
1370;SDS011;14306;49.942;11.570;2023-03-02T12:57:30;21.00;;;9.80;;
1370;SDS011;14306;49.942;11.570;2023-03-02T13:00:00;22.37;;;9.90;;
1370;SDS011;14306;49.942;11.570;2023-03-02T13:02:31;14.93;;;7.73;;
1370;SDS011;14306;49.942;11.570;2023-03-02T13:05:04;18.10;;;8.37;;
1370;SDS011;14306;49.942;11.570;2023-03-02T13:07:35;22.47;;;9.87;;
1370;SDS011;14306;49.942;11.570;2023-03-02T13:10:07;18.60;;;9.60;;
1370;SDS011;14306;49.942;11.570;2023-03-02T13:12:47;27.83;;;12.00;;
1370;SDS011;14306;49.942;11.570;2023-03-02T13:15:16;19.57;;;9.57;;
1370;SDS011;14306;49.942;11.570;2023-03-02T13:17:51;22.90;;;9.07;;
1370;SDS011;14306;49.942;11.570;2023-03-02T13:20:25;19.47;;;9.80;;
1370;SDS011;14306;49.942;11.570;2023-03-02T13:22:55;15.97;;;9.67;;
1370;SDS011;14306;49.942;11.570;2023-03-02T13:25:25;25.10;;;10.33;;
1370;SDS011;14306;49.942;11.570;2023-03-02T13:27:55;18.23;;;9.57;;
1370;SDS011;14306;49.942;11.570;2023-03-02T13:30:27;20.67;;;10.83;;
1370;SDS011;14306;49.942;11.570;2023-03-02T13:32:58;20.20;;;9.20;;
1370;SDS011;14306;49.942;11.570;2023-03-02T13:35:31;15.23;;;8.50;;
1370;SDS011;14306;49.942;11.570;2023-03-02T13:38:03;27.37;;;8.73;;
1370;SDS011;14306;49.942;11.570;2023-03-02T13:40:41;23.30;;;9.47;;
1370;SDS011;14306;49.942;11.570;2023-03-02T13:43:26;20.00;;;9.97;;
1370;SDS011;14306;49.942;11.570;2023-03-02T13:46:01;26.37;;;9.17;;
1370;SDS011;14306;49.942;11.570;2023-03-02T13:48:31;15.27;;;8.27;;
1370;SDS011;14306;49.942;11.570;2023-03-02T13:51:01;17.17;;;9.20;;
1370;SDS011;14306;49.942;11.570;2023-03-02T13:53:41;19.73;;;9.30;;
1370;SDS011;14306;49.942;11.570;2023-03-02T13:56:17;21.40;;;10.30;;
1370;SDS011;14306;49.942;11.570;2023-03-02T13:58:47;22.37;;;9.30;;
1370;SDS011;14306;49.942;11.570;2023-03-02T14:01:16;22.33;;;8.70;;
1370;SDS011;14306;49.942;11.570;2023-03-02T14:03:50;17.77;;;8.87;;
1370;SDS011;14306;49.942;11.570;2023-03-02T14:06:22;21.07;;;8.67;;
1370;SDS011;14306;49.942;11.570;2023-03-02T14:08:51;18.63;;;8.50;;
1370;SDS011;14306;49.942;11.570;2023-03-02T14:11:21;15.37;;;7.77;;
1370;SDS011;14306;49.942;11.570;2023-03-02T14:13:51;18.93;;;8.77;;
1370;SDS011;14306;49.942;11.570;2023-03-02T14:16:21;24.27;;;9.47;;
1370;SDS011;14306;49.942;11.570;2023-03-02T14:18:49;19.83;;;9.30;;
1370;SDS011;14306;49.942;11.570;2023-03-02T14:21:19;15.27;;;8.53;;
1370;SDS011;14306;49.942;11.570;2023-03-02T14:23:50;18.13;;;8.93;;
1370;SDS011;14306;49.942;11.570;2023-03-02T14:26:24;15.57;;;8.10;;
1370;SDS011;14306;49.942;11.570;2023-03-02T14:28:58;16.93;;;7.33;;
1370;SDS011;14306;49.942;11.570;2023-03-02T14:31:31;20.77;;;8.47;;
1370;SDS011;14306;49.942;11.570;2023-03-02T14:34:01;16.33;;;7.90;;
1370;SDS011;14306;49.942;11.570;2023-03-02T14:36:31;15.63;;;9.00;;
1370;SDS011;14306;49.942;11.570;2023-03-02T14:39:02;18.30;;;7.67;;
1370;SDS011;14306;49.942;11.570;2023-03-02T14:41:37;18.00;;;7.87;;
1370;SDS011;14306;49.942;11.570;2023-03-02T14:44:19;15.27;;;7.90;;
1370;SDS011;14306;49.942;11.570;2023-03-02T14:46:48;23.00;;;8.83;;
1370;SDS011;14306;49.942;11.570;2023-03-02T14:49:17;16.40;;;8.27;;
1370;SDS011;14306;49.942;11.570;2023-03-02T14:51:47;17.43;;;8.03;;
1370;SDS011;14306;49.942;11.570;2023-03-02T14:54:25;16.00;;;7.50;;
1370;SDS011;14306;49.942;11.570;2023-03-02T14:56:57;21.13;;;7.30;;
1370;SDS011;14306;49.942;11.570;2023-03-02T14:59:26;16.70;;;9.03;;